Terminal Aerodrome Forecast
Issued by NWS

Home | Current Version | Previous Version | Text Only | Print | Product List | Glossary On
Versions: 1 2 3 4 5 6 7 8 9 10 11 12 13 14 15 16 17 18
521
FTUS41 KCAR 220520
TAFPQI
TAF
KPQI 220520Z 2206/2306 18003KT P6SM SCT200
     FM221400 18006KT P6SM VCSH OVC040
     FM221800 18006KT 3SM -RA BR OVC015
     FM222200 36008KT 3SM -RASN BR OVC008
     FM230000 36010KT 1SM -SN BR OVC005=

USA.gov is the U.S. government's official web portal to all federal, state and local government web resources and services.